Time;durP1;ratioP1;P1;durP2;ratioP2;P2;SDS_P1;SDS_P2;PMS_P1;PMS_P2;Temp;Humidity;BMP_temperature;BMP_pressure;BME280_temperature;BME280_humidity;BME280_pressure;Samples;Min_cycle;Max_cycle;Signal;HPM_P1;HPM_P2
2021/05/22 00:01:06;;;;;;;1.93;0.50;;;;;;;9.25;69.09;95406.63;5062592;28;20126;-74
2021/05/22 00:03:32;;;;;;;1.63;0.50;;;;;;;9.20;68.95;95392.22;5062059;28;20016;-74
2021/05/22 00:05:57;;;;;;;2.20;0.60;;;;;;;9.18;68.95;95398.63;5070579;28;20043;-74
2021/05/22 00:08:23;;;;;;;4.13;0.60;;;;;;;9.23;69.41;95435.69;5070538;28;20078;-75
2021/05/22 00:10:50;;;;;;;2.20;0.50;;;;;;;9.15;69.74;95440.94;5069308;28;20028;-74
2021/05/22 00:13:16;;;;;;;1.73;0.60;;;;;;;9.18;69.54;95430.94;5052371;28;20085;-75
2021/05/22 00:15:42;;;;;;;1.47;0.50;;;;;;;9.05;69.20;95419.34;5059995;28;20035;-74
2021/05/22 00:18:10;;;;;;;2.57;1.10;;;;;;;9.04;69.94;95423.78;5056829;28;20019;-74
2021/05/22 00:20:36;;;;;;;1.33;0.50;;;;;;;9.03;69.82;95409.03;5048613;28;20059;-74
2021/05/22 00:23:02;;;;;;;1.27;0.40;;;;;;;9.04;70.12;95433.44;5073201;28;20032;-74
2021/05/22 00:25:28;;;;;;;1.60;0.47;;;;;;;9.04;70.10;95450.00;5068702;28;20504;-74
2021/05/22 00:27:54;;;;;;;2.00;0.70;;;;;;;8.97;70.27;95436.75;5059083;28;20032;-74
2021/05/22 00:30:20;;;;;;;1.23;0.50;;;;;;;8.95;70.11;95440.50;5054488;28;20559;-74
2021/05/22 00:32:46;;;;;;;2.67;0.50;;;;;;;9.00;70.33;95440.84;5071806;28;20028;-74
2021/05/22 00:35:12;;;;;;;3.83;0.70;;;;;;;8.95;70.68;95443.13;5065420;28;20394;-74
2021/05/22 00:37:38;;;;;;;3.70;0.73;;;;;;;8.95;70.17;95483.31;5059179;28;20024;-74
2021/05/22 00:40:07;;;;;;;2.47;0.80;;;;;;;8.97;69.75;95483.94;5063423;28;20065;-74
2021/05/22 00:42:37;;;;;;;5.27;0.83;;;;;;;8.98;70.16;95484.75;5051966;28;20025;-74
2021/05/22 00:45:20;;;;;;;3.03;0.60;;;;;;;8.89;70.60;95483.16;5060264;28;20035;-74
2021/05/22 00:47:51;;;;;;;4.53;0.68;;;;;;;8.84;70.30;95482.84;5074190;28;20036;-74
2021/05/22 00:50:40;;;;;;;2.53;0.60;;;;;;;8.86;70.49;95473.00;5067055;28;20090;-74
2021/05/22 00:53:07;;;;;;;0.93;0.37;;;;;;;8.81;70.56;95480.53;5075722;28;20116;-74
2021/05/22 00:55:36;;;;;;;6.97;0.50;;;;;;;8.76;70.20;95488.91;5056272;28;20035;-74
2021/05/22 00:58:03;;;;;;;2.93;0.73;;;;;;;8.78;69.69;95486.13;5069363;28;20152;-75
2021/05/22 01:00:42;;;;;;;4.23;0.87;;;;;;;8.72;70.62;95480.56;5076135;28;20054;-74
2021/05/22 01:03:10;;;;;;;0.80;0.40;;;;;;;8.69;70.85;95475.66;5065756;28;20114;-74
2021/05/22 01:05:42;;;;;;;2.60;1.00;;;;;;;8.65;70.32;95465.66;5073285;28;20032;-74
2021/05/22 01:08:18;;;;;;;2.67;0.60;;;;;;;8.60;70.46;95460.91;5075318;28;20109;-74
2021/05/22 01:10:55;;;;;;;1.70;0.80;;;;;;;8.51;70.94;95464.53;5075960;28;20036;-74
2021/05/22 01:13:21;;;;;;;1.33;0.50;;;;;;;8.52;71.02;95476.66;5055661;28;20032;-74
2021/05/22 01:15:53;;;;;;;2.13;0.40;;;;;;;8.58;70.76;95464.69;5055328;28;20474;-74
2021/05/22 01:18:19;;;;;;;1.77;0.70;;;;;;;8.50;71.19;95450.59;5065398;28;20055;-74
2021/05/22 01:20:54;;;;;;;4.33;0.77;;;;;;;8.50;70.77;95455.03;5082750;28;20039;-74
2021/05/22 01:23:26;;;;;;;3.07;0.80;;;;;;;8.43;71.25;95465.34;5064513;28;20478;-74
2021/05/22 01:25:54;;;;;;;3.67;0.50;;;;;;;8.43;71.38;95467.16;5077943;28;20047;-74
2021/05/22 01:28:20;;;;;;;1.93;0.60;;;;;;;8.43;71.01;95467.16;5048740;28;20031;-74
2021/05/22 01:30:50;;;;;;;1.73;0.50;;;;;;;8.42;71.34;95471.59;5068577;28;20029;-74
2021/05/22 01:33:18;;;;;;;3.53;0.57;;;;;;;8.37;71.93;95467.78;5069987;28;20029;-74
2021/05/22 01:35:44;;;;;;;2.03;0.40;;;;;;;8.35;71.49;95446.16;5051463;28;20017;-74
2021/05/22 01:38:10;;;;;;;1.67;0.70;;;;;;;8.33;71.64;95456.00;5052099;28;20149;-74
2021/05/22 01:40:36;;;;;;;1.73;0.70;;;;;;;8.32;71.74;95443.91;5048874;28;20057;-74
2021/05/22 01:43:03;;;;;;;1.80;0.63;;;;;;;8.29;73.11;95441.59;5065659;28;20577;-74
2021/05/22 01:45:34;;;;;;;2.37;0.60;;;;;;;8.23;72.98;95435.22;5055905;28;20033;-74
2021/05/22 01:48:02;;;;;;;1.53;0.50;;;;;;;8.21;73.43;95424.06;5061522;28;20497;-74
2021/05/22 01:50:32;;;;;;;3.17;0.60;;;;;;;8.14;72.88;95418.66;5075185;28;20111;-74
2021/05/22 01:53:00;;;;;;;4.03;0.70;;;;;;;8.17;72.88;95422.75;5066543;28;20024;-75
2021/05/22 01:55:28;;;;;;;2.57;0.83;;;;;;;8.14;72.90;95437.00;5053942;28;20025;-74
2021/05/22 01:57:54;;;;;;;1.87;0.50;;;;;;;8.12;73.03;95441.59;5045873;28;20039;-74
2021/05/22 02:00:20;;;;;;;0.97;0.67;;;;;;;8.15;73.37;95432.56;5067481;28;20037;-74
2021/05/22 02:03:07;;;;;;;2.10;0.53;;;;;;;8.16;73.16;95450.75;5061939;28;20028;-74
2021/05/22 02:05:35;;;;;;;5.20;0.80;;;;;;;8.12;73.83;95459.13;5061843;28;20068;-74
2021/05/22 02:08:06;;;;;;;1.77;0.30;;;;;;;8.06;73.87;95454.53;5071818;28;20037;-74
2021/05/22 02:10:33;;;;;;;1.60;0.57;;;;;;;8.02;73.81;95448.78;5067972;28;20086;-74
2021/05/22 02:12:59;;;;;;;1.77;0.70;;;;;;;8.08;73.03;95445.53;5065979;28;20044;-74
2021/05/22 02:15:27;;;;;;;3.47;0.60;;;;;;;8.07;73.83;95445.69;5054664;28;20029;-74
2021/05/22 02:17:54;;;;;;;0.97;0.60;;;;;;;8.09;73.07;95443.72;5077325;28;20059;-74
2021/05/22 02:20:22;;;;;;;5.07;1.73;;;;;;;8.02;73.83;95438.31;5077092;28;20109;-75
2021/05/22 02:22:48;;;;;;;2.33;0.50;;;;;;;8.02;73.56;95464.50;5067918;28;20360;-74
2021/05/22 02:25:15;;;;;;;5.03;0.80;;;;;;;8.01;73.80;95455.84;5068369;28;20526;-74
2021/05/22 02:27:42;;;;;;;1.33;0.57;;;;;;;8.02;73.65;95449.59;5070040;28;20028;-74
2021/05/22 02:30:12;;;;;;;1.57;0.60;;;;;;;8.08;73.32;95461.25;5058170;28;20028;-75
2021/05/22 02:32:44;;;;;;;4.13;1.00;;;;;;;8.12;73.04;95454.69;5070197;28;20534;-74
2021/05/22 02:35:11;;;;;;;2.00;0.60;;;;;;;8.13;72.74;95464.19;5065263;28;20044;-74
2021/05/22 02:37:37;;;;;;;5.73;0.70;;;;;;;8.21;72.97;95458.09;5071253;28;20035;-74
2021/05/22 02:40:14;;;;;;;4.63;1.03;;;;;;;8.24;72.77;95463.84;5080572;28;20024;-74
2021/05/22 02:42:45;;;;;;;1.10;0.50;;;;;;;8.23;72.43;95459.59;5048341;28;20025;-75
2021/05/22 02:45:12;;;;;;;1.30;0.37;;;;;;;8.30;72.37;95470.22;5054766;28;20394;-74
2021/05/22 02:47:41;;;;;;;3.07;0.80;;;;;;;8.35;71.91;95485.44;5080411;28;20050;-74
2021/05/22 02:50:09;;;;;;;1.60;0.57;;;;;;;8.25;72.37;95481.22;5079887;28;20034;-74
2021/05/22 02:52:39;;;;;;;5.63;0.60;;;;;;;8.31;72.24;95484.16;5054408;28;20077;-78
2021/05/22 02:55:07;;;;;;;4.30;0.73;;;;;;;8.29;72.67;95486.13;5054389;28;20032;-74
2021/05/22 02:57:35;;;;;;;3.00;0.67;;;;;;;8.30;72.44;95478.09;5061429;28;20551;-74
2021/05/22 03:00:02;;;;;;;6.33;1.47;;;;;;;8.36;72.29;95493.16;5081685;28;20040;-75
2021/05/22 03:02:30;;;;;;;2.90;1.03;;;;;;;8.35;72.87;95493.31;5053512;28;20115;-74
2021/05/22 03:04:56;;;;;;;2.03;0.50;;;;;;;8.20;74.27;95504.44;5068170;28;20040;-74
2021/05/22 03:07:23;;;;;;;4.37;0.73;;;;;;;8.14;74.34;95509.50;5068949;28;20023;-75
2021/05/22 03:09:49;;;;;;;2.63;0.50;;;;;;;8.06;73.73;95522.59;5056000;28;20640;-74
2021/05/22 03:12:20;;;;;;;1.27;0.40;;;;;;;8.07;73.98;95519.81;5059774;28;20064;-74
2021/05/22 03:14:48;;;;;;;2.03;0.50;;;;;;;8.02;73.73;95522.09;5054722;28;20033;-74
2021/05/22 03:17:14;;;;;;;4.33;0.80;;;;;;;7.85;74.09;95518.63;5051683;28;20024;-74
2021/05/22 03:19:39;;;;;;;2.70;0.40;;;;;;;7.84;73.34;95518.78;5059251;28;20036;-74
2021/05/22 03:22:05;;;;;;;1.83;0.40;;;;;;;7.95;73.03;95523.72;5077711;28;20024;-74
2021/05/22 03:24:31;;;;;;;2.33;0.50;;;;;;;7.91;73.89;95527.63;5081169;28;20420;-74
2021/05/22 03:26:58;;;;;;;1.70;0.53;;;;;;;7.93;74.07;95533.53;5054901;28;20482;-74
2021/05/22 03:29:23;;;;;;;3.13;0.77;;;;;;;7.83;74.68;95530.25;5065437;28;20025;-74
2021/05/22 03:31:49;;;;;;;2.10;0.40;;;;;;;7.77;76.06;95534.31;5053914;28;20056;-75
2021/05/22 03:34:15;;;;;;;2.37;0.70;;;;;;;7.83;76.52;95545.94;5061490;28;20082;-74
2021/05/22 03:36:41;;;;;;;2.77;0.70;;;;;;;7.67;77.82;95554.56;5048071;28;20033;-74
2021/05/22 03:39:13;;;;;;;2.23;0.50;;;;;;;7.56;77.80;95553.84;5067653;28;20119;-74
2021/05/22 03:41:39;;;;;;;2.00;0.47;;;;;;;7.48;78.01;95545.16;5069455;28;20043;-74
2021/05/22 03:44:05;;;;;;;1.07;0.40;;;;;;;7.49;79.28;95531.09;5061901;28;20316;-74
2021/05/22 03:46:31;;;;;;;3.20;0.50;;;;;;;7.39;79.88;95526.00;5045318;28;20131;-74
2021/05/22 03:48:57;;;;;;;1.50;0.50;;;;;;;7.33;81.28;95531.84;5045084;28;20029;-74
2021/05/22 03:51:23;;;;;;;2.53;0.50;;;;;;;7.33;81.58;95537.88;5043835;28;20036;-74
2021/05/22 03:53:49;;;;;;;2.83;0.50;;;;;;;7.33;81.33;95527.44;5062127;28;20082;-74
2021/05/22 03:56:15;;;;;;;1.47;0.33;;;;;;;7.21;82.22;95528.69;5051232;28;20032;-74
2021/05/22 03:58:42;;;;;;;2.30;0.57;;;;;;;7.23;82.58;95518.06;5058552;28;20060;-74
2021/05/22 04:01:07;;;;;;;3.47;0.80;;;;;;;7.17;81.83;95522.09;5052102;28;20028;-74
2021/05/22 04:03:33;;;;;;;2.30;0.40;;;;;;;7.19;81.21;95521.97;5050309;28;20055;-74
2021/05/22 04:05:59;;;;;;;4.40;0.60;;;;;;;7.18;81.26;95528.19;5066279;28;20741;-74
2021/05/22 04:08:24;;;;;;;4.93;0.87;;;;;;;7.26;80.95;95533.44;5059585;28;20052;-74
2021/05/22 04:10:59;;;;;;;5.30;1.10;;;;;;;7.17;81.61;95543.03;5080874;28;20039;-74
2021/05/22 04:13:25;;;;;;;2.07;0.60;;;;;;;7.22;81.14;95545.19;5052725;28;20147;-74
2021/05/22 04:15:50;;;;;;;3.07;0.70;;;;;;;7.23;81.04;95542.41;5068572;28;20143;-75
2021/05/22 04:18:16;;;;;;;3.27;0.60;;;;;;;7.30;81.27;95553.06;5066866;28;20056;-74
2021/05/22 04:20:42;;;;;;;3.40;0.80;;;;;;;7.26;81.67;95549.13;5047799;28;20104;-74
2021/05/22 04:23:08;;;;;;;2.23;0.60;;;;;;;7.26;81.83;95544.72;5049661;28;20040;-74
2021/05/22 04:25:34;;;;;;;1.80;0.90;;;;;;;7.37;81.52;95548.84;5072680;28;20093;-74
2021/05/22 04:28:01;;;;;;;2.73;1.00;;;;;;;7.43;81.24;95552.66;5051796;28;20123;-74
2021/05/22 04:30:27;;;;;;;3.03;0.93;;;;;;;7.55;81.35;95543.56;5055935;28;20028;-74
2021/05/22 04:32:54;;;;;;;3.20;0.70;;;;;;;7.43;81.39;95537.78;5044148;28;20039;-74
2021/05/22 04:35:20;;;;;;;4.50;1.30;;;;;;;7.47;81.32;95544.31;5042653;28;20037;-75
2021/05/22 04:37:46;;;;;;;3.50;0.70;;;;;;;7.57;80.97;95544.19;5062005;28;20036;-74
2021/05/22 04:40:11;;;;;;;2.87;0.90;;;;;;;7.49;81.53;95546.81;5057930;28;20471;-74
2021/05/22 04:42:41;;;;;;;3.13;0.80;;;;;;;7.66;80.23;95548.50;5066495;28;20543;-75
2021/05/22 04:45:08;;;;;;;6.40;1.10;;;;;;;7.65;80.40;95554.72;5080282;28;20024;-74
2021/05/22 04:47:35;;;;;;;5.57;0.90;;;;;;;7.77;79.92;95552.63;5070751;28;20143;-75
2021/05/22 04:50:02;;;;;;;3.57;0.73;;;;;;;7.85;79.45;95557.09;5057218;28;20499;-74
2021/05/22 04:52:28;;;;;;;5.80;0.63;;;;;;;7.97;79.11;95550.56;5071549;28;20123;-74
2021/05/22 04:54:54;;;;;;;2.87;0.70;;;;;;;7.90;79.04;95546.94;5055993;28;20112;-74
2021/05/22 04:57:20;;;;;;;2.87;1.13;;;;;;;7.89;78.95;95548.75;5059339;28;20033;-74
2021/05/22 04:59:45;;;;;;;1.63;0.70;;;;;;;7.95;78.92;95542.06;5050824;28;20028;-75
2021/05/22 05:02:11;;;;;;;1.60;0.67;;;;;;;8.14;78.02;95551.41;5055828;28;20040;-74
2021/05/22 05:04:37;;;;;;;3.33;0.73;;;;;;;8.18;77.56;95547.47;5048505;28;20021;-75
2021/05/22 05:07:03;;;;;;;3.17;0.73;;;;;;;8.13;77.37;95549.78;5075216;28;20032;-73
2021/05/22 05:09:35;;;;;;;3.03;0.80;;;;;;;8.20;76.98;95545.53;5069076;28;20727;-73
2021/05/22 05:12:02;;;;;;;3.00;0.67;;;;;;;8.17;77.03;95549.28;5073015;28;20036;-74
2021/05/22 05:14:28;;;;;;;2.73;1.03;;;;;;;8.18;76.70;95548.34;5049779;28;20637;-74
2021/05/22 05:16:54;;;;;;;3.93;0.77;;;;;;;8.15;77.00;95546.03;5053504;28;20603;-74
2021/05/22 05:19:24;;;;;;;3.83;0.80;;;;;;;8.10;77.77;95545.69;5052126;28;20039;-74
2021/05/22 05:21:50;;;;;;;7.17;1.53;;;;;;;8.15;77.22;95563.53;5067444;28;20036;-74
2021/05/22 05:24:16;;;;;;;3.10;1.57;;;;;;;8.08;77.43;95552.91;5059558;28;20024;-74
2021/05/22 05:26:42;;;;;;;2.63;0.87;;;;;;;8.26;77.10;95550.94;5048515;28;20494;-74
2021/05/22 05:29:08;;;;;;;4.70;0.90;;;;;;;8.45;76.05;95565.59;5070782;28;20116;-74
2021/05/22 05:31:34;;;;;;;9.00;2.30;;;;;;;8.49;75.73;95561.66;5053027;28;20035;-74
2021/05/22 05:34:00;;;;;;;4.07;1.10;;;;;;;8.57;75.32;95566.06;5074432;28;20021;-75
2021/05/22 05:36:26;;;;;;;5.80;1.10;;;;;;;8.75;74.89;95555.41;5074555;28;20037;-74
2021/05/22 05:39:06;;;;;;;2.63;0.73;;;;;;;8.72;75.15;95550.53;5056769;28;20394;-75
2021/05/22 05:41:32;;;;;;;5.17;1.03;;;;;;;8.84;74.70;95553.63;5052025;28;20036;-74
2021/05/22 05:43:57;;;;;;;4.53;0.97;;;;;;;8.90;75.21;95559.03;5079745;28;20094;-75
2021/05/22 05:46:23;;;;;;;3.90;0.50;;;;;;;9.04;74.45;95560.16;5077189;28;20079;-74
2021/05/22 05:48:49;;;;;;;3.30;0.77;;;;;;;9.27;73.76;95575.22;5073795;28;20020;-75
2021/05/22 05:51:15;;;;;;;4.70;0.97;;;;;;;9.23;73.28;95568.66;5078140;28;20039;-74
2021/05/22 05:53:47;;;;;;;2.70;0.80;;;;;;;9.39;73.00;95564.19;5055874;28;20017;-74
2021/05/22 05:56:15;;;;;;;4.30;1.10;;;;;;;9.93;70.85;95566.13;5071874;28;20040;-75
2021/05/22 05:58:40;;;;;;;6.23;1.50;;;;;;;10.31;69.28;95553.13;5057340;28;20428;-75
2021/05/22 06:01:14;;;;;;;3.63;1.17;;;;;;;11.00;67.23;95551.28;5051643;28;20123;-75
2021/05/22 06:03:42;;;;;;;6.67;1.20;;;;;;;11.30;66.45;95552.16;5063925;28;20028;-74
2021/05/22 06:06:19;;;;;;;2.10;0.80;;;;;;;11.57;65.02;95544.63;5063655;28;20482;-75
2021/05/22 06:08:45;;;;;;;5.63;0.83;;;;;;;11.70;64.17;95544.81;5072064;28;20065;-75
2021/05/22 06:11:13;;;;;;;1.53;0.80;;;;;;;11.74;64.76;95545.25;5055806;28;20390;-74
2021/05/22 06:13:41;;;;;;;3.27;0.70;;;;;;;12.13;63.24;95530.94;5057149;28;20020;-75
2021/05/22 06:18:34;;;;;;;4.27;0.90;;;;;;;12.52;61.01;95543.72;5077382;28;20039;-73
2021/05/22 06:21:01;;;;;;;4.20;0.80;;;;;;;12.35;61.65;95551.06;5054763;28;20073;-73
2021/05/22 06:23:40;;;;;;;3.03;0.90;;;;;;;12.33;61.19;95539.88;5074084;28;20067;-73
2021/05/22 06:26:06;;;;;;;6.10;0.97;;;;;;;12.35;60.89;95551.06;5073656;28;20111;-72
2021/05/22 06:28:32;;;;;;;4.60;0.87;;;;;;;12.60;59.64;95548.06;5059168;28;20107;-73
2021/05/22 06:31:01;;;;;;;4.43;1.10;;;;;;;12.37;61.62;95562.22;5060092;28;20501;-73
2021/05/22 06:33:27;;;;;;;2.97;1.00;;;;;;;11.87;63.00;95565.69;5073294;28;20721;-73
2021/05/22 06:35:53;;;;;;;5.90;1.20;;;;;;;11.55;63.44;95560.59;5054118;28;20056;-74
2021/05/22 06:38:19;;;;;;;6.30;1.13;;;;;;;11.04;63.65;95559.66;5062168;28;20696;-73
2021/05/22 06:40:45;;;;;;;5.80;1.00;;;;;;;11.32;63.89;95563.31;5075897;28;20111;-73
2021/05/22 06:43:12;;;;;;;2.90;0.80;;;;;;;11.24;64.52;95559.97;5078719;28;20032;-73
2021/05/22 06:45:43;;;;;;;4.90;1.00;;;;;;;10.82;66.08;95562.13;5053558;28;20029;-74
2021/05/22 06:48:11;;;;;;;5.30;1.10;;;;;;;10.92;67.50;95566.31;5049400;28;20074;-74
2021/05/22 06:50:37;;;;;;;5.53;1.20;;;;;;;10.62;65.39;95567.03;5057667;28;20553;-73
2021/05/22 06:53:04;;;;;;;6.03;0.93;;;;;;;10.55;65.63;95575.81;5071169;28;20051;-73
2021/05/22 06:55:30;;;;;;;4.53;0.90;;;;;;;10.26;64.72;95571.22;5059172;28;20108;-73
2021/05/22 06:58:00;;;;;;;6.23;0.90;;;;;;;10.58;64.43;95576.28;5053038;28;20042;-73
2021/05/22 07:00:27;;;;;;;5.23;1.00;;;;;;;12.50;59.97;95565.00;5069458;28;20028;-74
2021/05/22 07:02:53;;;;;;;2.97;0.80;;;;;;;12.96;58.50;95567.25;5065298;28;20028;-73
2021/05/22 07:05:19;;;;;;;4.90;0.80;;;;;;;13.03;57.91;95571.78;5073056;28;20039;-73
2021/05/22 07:07:44;;;;;;;5.07;1.00;;;;;;;12.41;58.01;95554.78;5072877;28;20029;-73
2021/05/22 07:10:12;;;;;;;4.83;0.70;;;;;;;13.08;55.24;95558.84;5066704;28;20044;-73
2021/05/22 07:12:38;;;;;;;2.50;0.80;;;;;;;12.74;55.84;95558.56;5069808;28;20560;-74
2021/05/22 07:15:05;;;;;;;6.87;1.20;;;;;;;13.48;52.93;95562.63;5050787;28;20032;-73
2021/05/22 07:17:31;;;;;;;5.60;1.07;;;;;;;14.03;52.49;95557.41;5054587;28;20862;-73
2021/05/22 07:19:56;;;;;;;5.53;1.57;;;;;;;14.01;51.95;95564.69;5053239;28;20037;-73
2021/05/22 07:22:22;;;;;;;2.23;0.97;;;;;;;12.70;54.97;95564.38;5066972;28;20071;-74
2021/05/22 07:24:48;;;;;;;4.10;0.90;;;;;;;13.51;54.28;95564.03;5051559;28;20548;-74
2021/05/22 07:27:15;;;;;;;6.27;1.73;;;;;;;12.88;54.47;95575.31;5053168;28;20024;-73
2021/05/22 07:29:42;;;;;;;4.90;1.37;;;;;;;13.16;53.73;95566.59;5088158;28;20756;-73
2021/05/22 07:32:08;;;;;;;7.00;2.97;;;;;;;13.26;53.19;95567.13;5076265;28;20028;-73
2021/05/22 07:34:34;;;;;;;5.07;1.17;;;;;;;12.52;56.26;95578.00;5055161;28;20524;-73
2021/05/22 07:36:59;;;;;;;4.87;1.70;;;;;;;12.58;56.50;95577.28;5064160;28;20578;-74
2021/05/22 07:39:25;;;;;;;7.03;1.40;;;;;;;13.49;52.46;95555.50;5051560;28;20040;-74
2021/05/22 07:41:51;;;;;;;7.10;1.50;;;;;;;14.76;49.41;95563.75;5063868;28;20044;-74
2021/05/22 07:44:17;;;;;;;8.57;1.70;;;;;;;13.50;52.99;95567.69;5057433;28;20032;-74
2021/05/22 07:46:42;;;;;;;6.50;1.73;;;;;;;12.92;54.67;95571.28;5068812;28;20029;-74
2021/05/22 07:49:12;;;;;;;5.30;1.23;;;;;;;13.06;53.03;95576.69;5069572;28;20792;-73
2021/05/22 07:51:40;;;;;;;4.50;1.40;;;;;;;14.58;50.79;95577.53;5051236;28;20036;-74
2021/05/22 07:54:06;;;;;;;5.93;1.80;;;;;;;14.37;50.77;95580.31;5081275;28;20118;-74
2021/05/22 07:56:32;;;;;;;4.40;1.27;;;;;;;14.19;52.55;95575.56;5068946;28;20461;-73
2021/05/22 07:58:57;;;;;;;7.43;1.43;;;;;;;14.40;49.29;95569.31;5067703;28;20043;-74
2021/05/22 08:01:23;;;;;;;8.97;1.60;;;;;;;13.71;50.53;95572.06;5072044;28;20051;-74
2021/05/22 08:03:49;;;;;;;3.30;1.10;;;;;;;13.29;51.48;95572.03;5074665;28;20028;-74
2021/05/22 08:06:15;;;;;;;4.57;0.70;;;;;;;13.13;52.07;95577.56;5053569;28;20031;-74
2021/05/22 08:08:43;;;;;;;7.43;1.50;;;;;;;12.80;52.71;95571.97;5071259;28;20040;-74
2021/05/22 08:11:10;;;;;;;5.90;2.60;;;;;;;12.93;54.09;95580.84;5077922;28;20080;-74
2021/05/22 08:13:35;;;;;;;7.03;2.00;;;;;;;14.24;50.46;95577.59;5069120;28;20483;-74
2021/05/22 08:16:01;;;;;;;4.37;1.37;;;;;;;15.06;47.20;95569.47;5075758;28;20050;-74
2021/05/22 08:18:28;;;;;;;4.53;1.27;;;;;;;14.79;48.96;95573.94;5071667;28;20086;-74
2021/05/22 08:20:56;;;;;;;2.90;1.03;;;;;;;15.41;47.29;95568.44;5064211;28;20124;-74
2021/05/22 08:23:22;;;;;;;4.07;0.90;;;;;;;15.96;45.23;95569.78;5049578;28;20024;-74
2021/05/22 08:25:49;;;;;;;3.67;1.10;;;;;;;16.23;45.02;95559.88;5057731;28;20563;-73
2021/05/22 08:28:21;;;;;;;4.73;1.10;;;;;;;16.66;44.25;95559.22;5074426;28;20120;-74
2021/05/22 08:30:50;;;;;;;3.70;0.80;;;;;;;16.56;44.84;95561.53;5052237;28;20185;-74
2021/05/22 08:33:16;;;;;;;4.70;1.30;;;;;;;16.82;43.27;95560.59;5064545;28;20071;-74
2021/05/22 08:35:42;;;;;;;6.30;1.60;;;;;;;16.65;44.87;95548.84;5056553;28;20032;-75
2021/05/22 08:38:09;;;;;;;3.13;0.77;;;;;;;16.26;42.01;95554.16;5067804;28;20487;-82
2021/05/22 08:40:34;;;;;;;3.63;0.80;;;;;;;17.20;40.89;95547.25;5049819;28;20033;-82
2021/05/22 08:43:00;;;;;;;2.63;0.85;;;;;;;17.79;41.17;95552.25;5067961;28;20036;-82
2021/05/22 08:45:26;;;;;;;4.13;0.90;;;;;;;16.30;45.47;95546.59;5069618;28;20056;-82
2021/05/22 08:47:53;;;;;;;5.53;1.10;;;;;;;16.97;43.14;95544.38;5056029;28;20028;-83
2021/05/22 08:50:20;;;;;;;5.90;2.38;;;;;;;16.11;44.48;95550.16;5063780;28;20065;-82
2021/05/22 08:52:46;;;;;;;8.20;2.20;;;;;;;17.19;42.26;95537.63;5055275;28;20032;-82
2021/05/22 08:55:13;;;;;;;4.88;1.02;;;;;;;16.98;42.40;95547.84;5069595;28;20086;-83
2021/05/22 08:57:42;;;;;;;4.45;1.00;;;;;;;18.05;40.71;95537.84;5065927;28;20059;-83
2021/05/22 09:00:12;;;;;;;4.63;0.75;;;;;;;18.23;39.32;95537.00;5061675;28;20058;-83
2021/05/22 09:02:40;;;;;;;3.78;0.93;;;;;;;18.02;39.27;95532.97;5081102;28;20016;-82
2021/05/22 09:05:25;;;;;;;6.25;0.90;;;;;;;18.46;38.91;95526.47;5057043;28;20171;-82
2021/05/22 09:08:05;;;;;;;6.75;1.10;;;;;;;19.59;37.89;95529.25;5072875;28;20028;-83
2021/05/22 09:10:39;;;;;;;3.90;1.08;;;;;;;16.95;39.17;95530.50;5078861;28;20037;-82
2021/05/22 09:13:08;;;;;;;5.53;1.05;;;;;;;16.53;37.10;95538.06;5073740;28;20024;-82
2021/05/22 09:15:41;;;;;;;4.30;0.98;;;;;;;17.41;35.20;95529.28;5080622;28;20020;-82
2021/05/22 09:18:15;;;;;;;4.03;0.90;;;;;;;18.46;34.32;95539.78;5058382;28;20495;-83
2021/05/22 09:20:46;;;;;;;4.45;0.77;;;;;;;17.46;34.33;95542.72;5050804;28;20044;-82
2021/05/22 09:23:14;;;;;;;8.40;2.15;;;;;;;17.84;34.84;95544.41;5061372;28;20144;-83
2021/05/22 09:25:42;;;;;;;8.50;3.13;;;;;;;16.78;36.06;95542.66;5047193;28;20120;-82
2021/05/22 09:28:10;;;;;;;3.97;1.30;;;;;;;17.22;37.96;95536.41;5073820;28;20036;-80
2021/05/22 09:30:38;;;;;;;2.63;0.68;;;;;;;18.42;36.45;95535.13;5073349;28;20060;-81
2021/05/22 09:33:17;;;;;;;3.72;1.08;;;;;;;17.41;37.76;95539.91;5055474;28;20504;-81
2021/05/22 09:36:02;;;;;;;3.85;1.05;;;;;;;17.53;37.07;95532.84;5043086;28;20115;-81
2021/05/22 09:38:39;;;;;;;3.83;0.82;;;;;;;18.21;36.11;95539.06;5051139;28;20036;-82
2021/05/22 09:41:19;;;;;;;4.80;1.02;;;;;;;17.76;37.08;95547.34;5055084;28;20032;-82
2021/05/22 09:44:14;;;;;;;3.47;1.05;;;;;;;18.03;37.23;95539.91;5068441;28;20128;-82
2021/05/22 09:46:50;;;;;;;4.00;1.00;;;;;;;18.45;36.01;95538.16;5047046;28;20090;-82
2021/05/22 09:49:21;;;;;;;5.03;1.40;;;;;;;19.39;34.15;95530.41;5065998;28;20113;-82
2021/05/22 09:51:57;;;;;;;5.03;0.93;;;;;;;19.93;31.40;95527.59;5055832;28;20032;-82
2021/05/22 09:54:44;;;;;;;3.08;1.00;;;;;;;19.37;34.50;95537.81;5055883;28;20455;-83
2021/05/22 09:57:15;;;;;;;4.78;0.90;;;;;;;19.17;34.61;95532.00;5057207;28;20024;-81
2021/05/22 09:59:41;;;;;;;5.50;0.88;;;;;;;19.44;33.88;95527.03;5047022;28;20090;-82
2021/05/22 10:02:37;;;;;;;3.92;0.98;;;;;;;20.51;33.59;95523.16;5069060;28;20494;-81
2021/05/22 10:05:18;;;;;;;7.97;1.40;;;;;;;19.60;34.09;95525.50;5056975;28;20035;-81
2021/05/22 10:07:46;;;;;;;3.63;0.90;;;;;;;19.90;33.27;95531.53;5066865;28;20552;-82
2021/05/22 10:10:13;;;;;;;3.78;0.70;;;;;;;19.85;31.64;95527.94;5069764;28;20039;-82
2021/05/22 10:12:39;;;;;;;5.18;1.08;;;;;;;18.60;32.58;95530.56;5042709;28;20869;-82
2021/05/22 10:15:08;;;;;;;3.55;0.70;;;;;;;19.14;32.44;95546.59;5047018;28;20031;-81
2021/05/22 10:17:34;;;;;;;6.47;1.15;;;;;;;19.12;33.01;95547.88;5075807;28;20028;-83
2021/05/22 10:20:00;;;;;;;4.45;1.00;;;;;;;17.82;35.89;95547.28;5058507;28;20032;-82
2021/05/22 10:22:26;;;;;;;1.60;0.57;;;;;;;17.64;36.09;95552.59;5065489;28;20103;-80
2021/05/22 10:24:53;;;;;;;7.32;0.98;;;;;;;19.18;34.47;95549.59;5068867;28;20036;-82
2021/05/22 10:27:21;;;;;;;2.42;0.90;;;;;;;20.10;32.28;95535.69;5067963;28;20028;-83
2021/05/22 10:29:47;;;;;;;3.33;1.00;;;;;;;20.53;32.57;95547.78;5069875;28;20031;-82
2021/05/22 10:32:31;;;;;;;4.30;0.95;;;;;;;20.16;30.63;95540.09;5048594;28;20041;-82
2021/05/22 10:34:57;;;;;;;6.72;1.48;;;;;;;;;;5047189;28;20055;-82
2021/05/22 10:37:41;;;;;;;2.90;0.77;;;;;;;20.01;32.62;95554.72;5049749;28;20470;-83
2021/05/22 10:40:09;;;;;;;6.85;1.33;;;;;;;19.43;32.87;95554.75;5047370;28;20036;-82
2021/05/22 10:42:35;;;;;;;4.75;1.00;;;;;;;20.49;31.54;95544.75;5066215;28;20032;-83
2021/05/22 10:45:24;;;;;;;3.88;1.10;;;;;;;18.11;33.58;95544.94;5069042;28;20051;-83
2021/05/22 10:47:50;;;;;;;8.98;1.75;;;;;;;17.71;34.03;95555.19;5070797;28;20126;-82
2021/05/22 10:50:36;;;;;;;2.78;1.20;;;;;;;17.01;36.40;95560.69;5061290;28;20101;-82
2021/05/22 10:53:30;;;;;;;6.38;1.05;;;;;;;18.59;33.73;95555.56;5070654;28;20032;-83
2021/05/22 10:56:15;;;;;;;5.07;1.10;;;;;;;18.56;30.49;95556.00;5053723;28;20036;-83
2021/05/22 10:58:59;;;;;;;4.95;1.13;;;;;;;19.70;29.85;95542.59;5052309;28;20046;-82
2021/05/22 11:01:35;;;;;;;2.20;0.70;;;;;;;19.13;30.91;95533.50;5067409;28;20028;-82
2021/05/22 11:06:48;;;;;;;2.47;0.75;;;;;;;20.12;30.13;95542.41;5071781;28;20074;-82
2021/05/22 11:09:31;;;;;;;3.60;0.90;;;;;;;20.27;29.72;95533.09;5051628;28;20037;-81
2021/05/22 11:11:58;;;;;;;;;;;;;;;18.84;30.17;95549.28;5075379;28;20035;-82
2021/05/22 11:14:48;;;;;;;2.22;0.80;;;;;;;19.71;29.43;95548.72;5072305;28;19921;-82
2021/05/22 11:17:21;;;;;;;1.88;0.65;;;;;;;19.81;30.34;95548.94;5063491;28;20039;-83
2021/05/22 11:20:06;;;;;;;4.07;1.20;;;;;;;19.42;29.87;95535.25;5051886;28;20040;-82
2021/05/22 11:23:02;;;;;;;1.85;0.60;;;;;;;18.71;31.63;95560.13;5048266;28;20032;-81
2021/05/22 11:25:52;;;;;;;3.72;1.00;;;;;;;18.73;31.54;95553.56;5063440;28;20044;-81
2021/05/22 11:28:22;;;;;;;3.55;0.65;;;;;;;20.72;30.35;95554.53;5048558;28;20035;-82
2021/05/22 11:31:04;;;;;;;8.27;1.30;;;;;;;18.86;31.22;95557.88;5066874;28;20033;-82
2021/05/22 11:33:32;;;;;;;4.10;1.42;;;;;;;19.44;30.27;95554.50;5046729;28;20044;-81
2021/05/22 11:36:11;;;;;;;5.53;1.92;;;;;;;20.37;29.69;95560.78;5066791;28;20082;-82
2021/05/22 11:38:38;;;;;;;3.47;0.52;;;;;;;19.96;29.10;95551.16;5056033;28;20028;-82
2021/05/22 11:41:06;;;;;;;3.92;0.90;;;;;;;20.61;28.87;95548.19;5075921;28;20039;-82
2021/05/22 11:43:32;;;;;;;4.07;0.77;;;;;;;19.76;30.13;95556.84;5050961;28;20024;-83
2021/05/22 11:46:26;;;;;;;2.28;0.60;;;;;;;19.84;29.36;95558.34;5070960;28;20059;-82
2021/05/22 11:48:55;;;;;;;;;;;;;;;20.57;29.08;95560.41;5078074;28;20043;-82
2021/05/22 11:51:23;;;;;;;4.18;0.85;;;;;;;21.39;28.32;95543.13;5074256;28;19916;-82
2021/05/22 11:53:58;;;;;;;2.03;0.70;;;;;;;20.84;27.18;95551.81;5075921;28;20035;-83